Terminal Aerodrome Forecast
Issued by NWS Amarillo, TX

Home | Current Version | Previous Version | Text Only | Print | Product List | Glossary On
Versions: 1 2 3 4 5 6 7 8 9 10 11 12 13 14 15
000
FTUS44 KAMA 240520
TAFAMA
TAF
KAMA 240520Z 2406/2506 15015G25KT P6SM -SHRA BKN040 OVC050
      TEMPO 2406/2410 VRB20G30KT 3SM TSRA OVC030CB
     FM241200 16015G25KT P6SM OVC050=

USA.gov is the U.S. government's official web portal to all federal, state and local government web resources and services.